Time;durP1;ratioP1;P1;durP2;ratioP2;P2;SDS_P1;SDS_P2;PMS_P1;PMS_P2;Temp;Humidity;BMP_temperature;BMP_pressure;BME280_temperature;BME280_humidity;BME280_pressure;Samples;Min_cycle;Max_cycle;Signal;HPM_P1;HPM_P2
2023/10/31 00:01:16;;;;;;;7.50;6.28;;;;;;;14.89;64.50;100529.47;1750514;81;21359;-83
2023/10/31 00:04:21;;;;;;;6.65;5.90;;;;;;;15.06;63.85;100527.59;1764123;80;21905;-80
2023/10/31 00:07:27;;;;;;;5.58;4.72;;;;;;;14.99;63.91;100525.30;1760452;80;21330;-80
2023/10/31 00:10:33;;;;;;;5.28;4.78;;;;;;;14.81;64.30;100523.56;1741837;81;21329;-80
2023/10/31 00:13:39;;;;;;;10.68;5.78;;;;;;;14.81;64.41;100525.79;1761534;80;21347;-80
2023/10/31 00:16:44;;;;;;;14.03;5.90;;;;;;;14.78;64.64;100526.20;1757827;81;21945;-80
2023/10/31 00:19:50;;;;;;;5.72;4.97;;;;;;;14.77;65.08;100525.01;1754964;81;21346;-80
2023/10/31 00:22:56;;;;;;;10.50;5.35;;;;;;;15.07;64.31;100517.43;1757241;81;21359;-81
2023/10/31 00:26:02;;;;;;;7.28;4.87;;;;;;;15.01;64.22;100525.13;1757147;81;21355;-81
2023/10/31 00:29:11;;;;;;;6.90;5.05;;;;;;;14.95;64.73;100527.28;1742595;81;21334;-80
2023/10/31 00:32:17;;;;;;;11.20;4.80;;;;;;;14.88;64.83;100523.11;1745576;81;21375;-81
2023/10/31 00:35:22;;;;;;;4.45;3.98;;;;;;;14.75;65.18;100516.11;1750055;81;21346;-80
2023/10/31 00:38:28;;;;;;;9.75;5.78;;;;;;;14.78;65.02;100523.98;1755404;81;21977;-81
2023/10/31 00:41:34;;;;;;;5.83;4.50;;;;;;;14.66;65.18;100521.42;1749280;81;21351;-81
2023/10/31 00:44:39;;;;;;;14.23;5.50;;;;;;;14.66;65.17;100518.14;1748957;81;22107;-80
2023/10/31 00:47:45;;;;;;;15.32;5.55;;;;;;;14.53;65.66;100522.14;1757299;81;21354;-80
2023/10/31 00:50:52;;;;;;;10.82;5.55;;;;;;;14.59;65.71;100521.91;1747232;81;21350;-80
2023/10/31 00:53:57;;;;;;;10.23;5.10;;;;;;;14.72;65.26;100530.26;1750274;81;21347;-81
2023/10/31 00:57:02;;;;;;;23.77;6.28;;;;;;;14.60;65.99;100530.48;1747007;81;22037;-81
2023/10/31 01:00:09;;;;;;;5.45;4.95;;;;;;;15.06;64.90;100532.27;1751894;81;21953;-81
2023/10/31 01:03:15;;;;;;;9.28;5.50;;;;;;;15.05;65.03;100530.53;1749999;81;21420;-80
2023/10/31 01:06:21;;;;;;;11.43;5.75;;;;;;;15.07;65.10;100533.95;1739697;81;21335;-80
2023/10/31 01:09:27;;;;;;;19.02;4.90;;;;;;;15.21;64.91;100532.16;1745817;81;21425;-80
2023/10/31 01:12:34;;;;;;;36.70;5.10;;;;;;;15.36;64.78;100535.64;1753314;81;21343;-80
2023/10/31 01:15:39;;;;;;;28.62;5.40;;;;;;;15.34;64.92;100533.09;1754799;80;21966;-81
2023/10/31 01:18:44;;;;;;;5.10;4.60;;;;;;;15.02;65.77;100535.94;1736211;80;21929;-80
2023/10/31 01:21:50;;;;;;;16.80;5.35;;;;;;;15.25;65.15;100535.69;1759149;81;21360;-80
2023/10/31 01:24:55;;;;;;;12.90;4.40;;;;;;;15.28;64.87;100532.50;1754082;81;21343;-80
2023/10/31 01:28:02;;;;;;;17.92;5.05;;;;;;;15.27;64.84;100532.72;1746912;81;21908;-81
2023/10/31 01:31:08;;;;;;;7.92;4.87;;;;;;;15.32;64.76;100527.45;1746392;81;21330;-80
2023/10/31 01:34:14;;;;;;;6.62;5.25;;;;;;;15.40;64.59;100527.83;1725920;81;21882;-81
2023/10/31 01:37:20;;;;;;;14.93;4.30;;;;;;;15.38;64.82;100529.92;1753481;81;21327;-81
2023/10/31 01:40:26;;;;;;;10.65;4.97;;;;;;;15.34;64.91;100526.73;1757842;80;22620;-80
2023/10/31 01:43:45;;;;;;;6.15;4.70;;;;;;;15.40;64.51;100524.54;1744003;81;21320;-81
2023/10/31 01:46:50;;;;;;;12.05;4.50;;;;;;;15.25;65.06;100527.95;1744614;81;21343;-81
2023/10/31 01:49:56;;;;;;;4.00;3.60;;;;;;;15.34;64.77;100513.81;1748662;80;21315;-81
2023/10/31 01:53:01;;;;;;;7.12;3.70;;;;;;;15.28;64.90;100505.48;1759148;81;21346;-80
2023/10/31 01:56:06;;;;;;;9.40;4.33;;;;;;;15.22;65.03;100500.25;1748489;81;21330;-80
2023/10/31 01:59:13;;;;;;;8.03;3.90;;;;;;;15.34;64.88;100510.20;1748692;81;21327;-80
2023/10/31 02:02:18;;;;;;;6.15;4.22;;;;;;;15.29;65.12;100507.17;1751185;81;21314;-80
2023/10/31 02:05:26;;;;;;;24.30;3.98;;;;;;;15.32;65.17;100518.65;1757395;81;21908;-81
2023/10/31 02:08:32;;;;;;;9.33;5.00;;;;;;;15.39;65.06;100513.20;1738552;81;21318;-81
2023/10/31 02:11:37;;;;;;;13.93;5.40;;;;;;;15.49;65.08;100515.59;1757282;81;21898;-80
2023/10/31 02:14:43;;;;;;;11.83;4.72;;;;;;;15.47;65.20;100508.03;1755170;81;21303;-81
2023/10/31 02:17:49;;;;;;;10.80;4.80;;;;;;;15.73;64.93;100505.98;1759221;81;21367;-81
2023/10/31 02:20:56;;;;;;;23.15;4.67;;;;;;;15.88;64.47;100503.06;1748684;80;21359;-81
2023/10/31 02:24:10;;;;;;;20.05;4.33;;;;;;;15.77;64.84;100506.75;1752120;80;21330;-81
2023/10/31 02:27:15;;;;;;;13.18;5.08;;;;;;;15.77;65.03;100510.03;1740299;81;21406;-80
2023/10/31 02:30:22;;;;;;;17.30;5.03;;;;;;;15.79;65.14;100502.39;1753281;81;21921;-80
2023/10/31 02:33:27;;;;;;;9.25;4.50;;;;;;;15.74;65.11;100511.81;1755274;81;21342;-80
2023/10/31 02:36:33;;;;;;;14.75;4.12;;;;;;;15.85;65.08;100508.45;1759531;81;21370;-80
2023/10/31 02:39:40;;;;;;;15.00;4.55;;;;;;;15.97;64.66;100508.20;1761097;80;21905;-80
2023/10/31 02:42:46;;;;;;;15.30;4.40;;;;;;;15.95;64.44;100506.69;1757115;81;21347;-80
2023/10/31 02:45:52;;;;;;;9.23;4.30;;;;;;;16.00;63.96;100498.14;1748454;81;21292;-81
2023/10/31 02:48:59;;;;;;;18.55;5.30;;;;;;;15.90;64.17;100506.45;1719966;83;21351;-81
2023/10/31 02:52:04;;;;;;;8.60;4.62;;;;;;;15.88;64.26;100506.67;1702820;83;21339;-80
2023/10/31 02:55:11;;;;;;;12.10;4.42;;;;;;;15.79;64.66;100496.88;1693934;83;21903;-81
2023/10/31 02:58:17;;;;;;;12.15;3.98;;;;;;;15.75;64.57;100496.96;1730758;82;21339;-80
2023/10/31 03:01:22;;;;;;;20.05;5.08;;;;;;;15.72;64.68;100494.63;1733544;81;21299;-80
2023/10/31 03:04:28;;;;;;;4.53;4.12;;;;;;;15.75;64.45;100490.91;1742184;81;21357;-80
2023/10/31 03:07:34;;;;;;;17.95;5.60;;;;;;;15.68;64.63;100491.43;1712430;82;21332;-80
2023/10/31 03:10:40;;;;;;;12.35;6.05;;;;;;;15.67;64.63;100483.38;1761015;81;21346;-80
2023/10/31 03:13:45;;;;;;;11.88;5.20;;;;;;;15.58;64.78;100487.64;1763825;81;21334;-80
2023/10/31 03:16:50;;;;;;;10.93;5.30;;;;;;;15.53;64.92;100490.17;1759917;81;21346;-80
2023/10/31 03:19:56;;;;;;;7.35;4.53;;;;;;;15.59;64.73;100485.20;1704029;83;21341;-80
2023/10/31 03:23:03;;;;;;;6.37;4.92;;;;;;;15.54;64.79;100473.94;1716500;83;21349;-81
2023/10/31 03:26:08;;;;;;;22.05;5.22;;;;;;;15.63;64.45;100473.77;1708671;83;22693;-80
2023/10/31 03:29:14;;;;;;;11.65;5.12;;;;;;;15.51;64.63;100477.63;1724005;83;21377;-80
2023/10/31 03:32:20;;;;;;;11.93;4.47;;;;;;;15.58;64.79;100468.88;1722935;83;21359;-80
2023/10/31 03:35:25;;;;;;;36.77;4.72;;;;;;;15.53;64.80;100458.46;1722151;83;21354;-81
2023/10/31 03:38:31;;;;;;;13.15;4.03;;;;;;;15.58;64.65;100461.45;1700933;82;21365;-80
2023/10/31 03:41:38;;;;;;;13.13;4.35;;;;;;;15.48;64.87;100465.13;1752781;80;21335;-80
2023/10/31 03:44:43;;;;;;;26.85;3.95;;;;;;;15.62;64.48;100459.64;1753096;81;21945;-80
2023/10/31 03:47:48;;;;;;;10.15;3.00;;;;;;;15.68;64.28;100464.39;1751358;80;21359;-80
2023/10/31 03:50:54;;;;;;;22.67;3.10;;;;;;;15.68;64.31;100467.14;1765040;80;21331;-80
2023/10/31 03:53:59;;;;;;;15.38;2.77;;;;;;;15.76;64.43;100466.94;1756957;81;21327;-81
2023/10/31 03:57:05;;;;;;;28.45;3.27;;;;;;;15.76;64.58;100471.08;1756056;81;21324;-80
2023/10/31 04:00:11;;;;;;;12.73;3.17;;;;;;;15.75;64.65;100479.88;1757147;80;21342;-80
2023/10/31 04:03:17;;;;;;;37.63;3.37;;;;;;;15.82;64.83;100475.26;1711478;83;21350;-81
2023/10/31 04:06:23;;;;;;;44.58;3.80;;;;;;;15.87;64.66;100470.50;1688321;83;21395;-81
2023/10/31 04:09:29;;;;;;;16.90;2.47;;;;;;;15.89;64.69;100473.05;1696526;83;21904;-81
2023/10/31 04:12:35;;;;;;;10.32;2.85;;;;;;;15.86;65.04;100474.86;1715045;82;21366;-81
2023/10/31 04:15:40;;;;;;;8.48;2.70;;;;;;;16.03;64.52;100474.25;1717377;82;21352;-81
2023/10/31 04:18:45;;;;;;;2.83;2.55;;;;;;;15.97;64.59;100483.37;1722198;82;21373;-81
2023/10/31 04:21:50;;;;;;;4.60;2.62;;;;;;;15.63;65.65;100480.67;1719078;82;21364;-81
2023/10/31 04:24:56;;;;;;;5.60;2.30;;;;;;;15.66;65.34;100473.38;1714269;82;21338;-81
2023/10/31 04:28:03;;;;;;;14.20;3.00;;;;;;;15.60;65.50;100475.87;1716673;82;21686;-81
2023/10/31 04:31:09;;;;;;;8.28;2.50;;;;;;;15.66;65.30;100470.62;1711193;83;21354;-81
2023/10/31 04:34:17;;;;;;;3.25;2.55;;;;;;;15.72;65.13;100469.28;1706258;83;21385;-81
2023/10/31 04:37:22;;;;;;;4.58;3.17;;;;;;;15.58;65.60;100475.77;1701958;83;21356;-81
2023/10/31 04:40:30;;;;;;;10.58;3.92;;;;;;;15.43;66.30;100480.05;1691193;83;21951;-81
2023/10/31 04:43:36;;;;;;;8.95;4.53;;;;;;;15.66;65.62;100472.00;1683680;83;21883;-81
2023/10/31 04:46:41;;;;;;;18.80;4.20;;;;;;;15.72;65.46;100477.56;1705703;82;21350;-81
2023/10/31 04:49:48;;;;;;;16.02;4.30;;;;;;;15.68;65.51;100476.27;1716508;82;21333;-81
2023/10/31 04:52:54;;;;;;;5.05;3.67;;;;;;;15.76;65.33;100482.11;1715335;82;21351;-81
2023/10/31 04:56:00;;;;;;;8.45;3.83;;;;;;;15.79;65.32;100485.84;1726971;82;21356;-81
2023/10/31 04:59:06;;;;;;;3.58;2.67;;;;;;;15.62;66.15;100499.62;1714751;82;21337;-81
2023/10/31 05:02:12;;;;;;;5.15;2.15;;;;;;;15.66;66.01;100497.66;1727614;82;21912;-81
2023/10/31 05:05:17;;;;;;;6.72;1.98;;;;;;;15.75;65.59;100498.34;1717814;82;21345;-82
2023/10/31 05:08:22;;;;;;;10.13;2.50;;;;;;;15.67;65.84;100508.19;1714821;82;21337;-81
2023/10/31 05:11:28;;;;;;;1.98;1.77;;;;;;;15.52;66.42;100511.87;1706271;82;21907;-81
2023/10/31 05:14:34;;;;;;;20.10;2.35;;;;;;;15.41;66.85;100517.12;1711605;82;21326;-81
2023/10/31 05:17:40;;;;;;;8.53;2.33;;;;;;;15.47;66.87;100512.16;1722246;82;21344;-81
2023/10/31 05:20:45;;;;;;;4.67;2.33;;;;;;;15.49;66.96;100520.56;1724791;82;21385;-81
2023/10/31 05:23:51;;;;;;;25.32;3.12;;;;;;;15.50;67.30;100517.28;1683947;83;21338;-81
2023/10/31 05:26:57;;;;;;;10.82;2.65;;;;;;;15.62;67.10;100523.05;1706309;83;21358;-81
2023/10/31 05:30:03;;;;;;;7.67;2.95;;;;;;;15.88;66.73;100516.86;1690543;83;21454;-81
2023/10/31 05:33:09;;;;;;;27.10;3.30;;;;;;;15.98;66.61;100529.20;1704318;83;22122;-81
2023/10/31 05:36:28;;;;;;;2.75;2.42;;;;;;;16.19;66.41;100531.52;1690986;82;21385;-81
2023/10/31 05:39:36;;;;;;;8.18;2.80;;;;;;;16.31;66.23;100531.22;1698571;83;21354;-81
2023/10/31 05:42:42;;;;;;;15.95;2.83;;;;;;;16.44;66.12;100535.39;1698341;82;21365;-81
2023/10/31 05:45:48;;;;;;;4.00;2.00;;;;;;;16.47;66.15;100533.61;1697361;83;21361;-81
2023/10/31 05:48:53;;;;;;;7.33;3.10;;;;;;;16.39;66.64;100531.56;1692051;83;21991;-81
2023/10/31 05:51:59;;;;;;;30.85;4.22;;;;;;;16.40;66.69;100528.59;1712292;81;21350;-82
2023/10/31 05:55:05;;;;;;;9.60;2.70;;;;;;;16.27;67.47;100524.41;1734180;81;21365;-81
2023/10/31 05:58:12;;;;;;;3.58;3.22;;;;;;;16.58;67.12;100521.93;1707878;82;21394;-81
2023/10/31 06:01:18;;;;;;;3.42;2.35;;;;;;;16.64;66.88;100523.53;1737443;81;21326;-81
2023/10/31 06:04:24;;;;;;;7.35;3.50;;;;;;;16.79;66.73;100523.66;1702834;82;21307;-82
2023/10/31 06:07:31;;;;;;;6.95;3.40;;;;;;;17.05;65.93;100531.12;1703705;82;21999;-81
2023/10/31 06:10:37;;;;;;;11.73;3.45;;;;;;;17.26;65.67;100527.80;1727343;81;21652;-81
2023/10/31 06:13:43;;;;;;;7.90;3.00;;;;;;;17.25;65.78;100527.48;1776902;80;21308;-81
2023/10/31 06:16:51;;;;;;;9.55;3.55;;;;;;;17.29;65.90;100528.22;1715114;82;21329;-81
2023/10/31 06:19:56;;;;;;;5.00;3.60;;;;;;;17.38;65.61;100534.38;1750115;80;21893;-81
2023/10/31 06:23:03;;;;;;;4.53;3.87;;;;;;;17.61;65.08;100540.82;1742975;81;21356;-81
2023/10/31 06:26:09;;;;;;;13.50;4.10;;;;;;;17.48;65.76;100538.93;1735393;80;21367;-80
2023/10/31 06:29:15;;;;;;;6.60;4.17;;;;;;;17.46;66.15;100535.55;1719965;81;21309;-81
2023/10/31 06:32:22;;;;;;;6.55;4.00;;;;;;;17.63;66.17;100530.38;1737425;80;22256;-80
2023/10/31 06:35:29;;;;;;;10.55;5.80;;;;;;;17.43;66.80;100531.81;1728686;81;21324;-81
2023/10/31 06:38:35;;;;;;;14.50;6.05;;;;;;;17.66;66.84;100531.34;1728970;80;22493;-81
2023/10/31 06:41:40;;;;;;;12.88;5.58;;;;;;;17.86;66.84;100531.30;1728390;80;22590;-81
2023/10/31 06:44:45;;;;;;;16.15;6.67;;;;;;;18.12;66.52;100526.19;1741956;80;21287;-81
2023/10/31 06:47:51;;;;;;;11.25;5.87;;;;;;;18.32;66.26;100531.61;1744112;80;21295;-81
2023/10/31 06:50:57;;;;;;;12.53;6.70;;;;;;;18.47;66.11;100528.00;1754431;80;21352;-81
2023/10/31 06:54:03;;;;;;;18.80;7.47;;;;;;;18.40;66.61;100525.82;1728627;80;21326;-81
2023/10/31 06:57:08;;;;;;;19.32;10.05;;;;;;;18.47;66.72;100531.31;1721032;81;21360;-80
2023/10/31 07:00:17;;;;;;;52.58;26.73;;;;;;;18.58;66.81;100530.58;1740546;80;21330;-81
2023/10/31 07:03:24;;;;;;;41.13;22.58;;;;;;;18.60;67.05;100533.45;1731495;80;21318;-79
2023/10/31 07:06:32;;;;;;;23.62;12.93;;;;;;;18.74;67.23;100530.09;1730261;81;21343;-81
2023/10/31 07:09:38;;;;;;;19.05;9.20;;;;;;;18.94;66.88;100531.31;1734485;81;21298;-81
2023/10/31 07:12:47;;;;;;;20.43;8.88;;;;;;;18.95;67.03;100535.77;1737139;80;21368;-81
2023/10/31 07:15:52;;;;;;;18.98;8.65;;;;;;;18.98;67.60;100533.95;1750033;80;21334;-80
2023/10/31 07:18:59;;;;;;;16.05;6.72;;;;;;;19.10;67.42;100535.43;1757682;79;21319;-80
2023/10/31 07:22:04;;;;;;;15.83;5.62;;;;;;;19.43;66.70;100536.50;1743700;80;21295;-81
2023/10/31 07:25:11;;;;;;;21.50;6.15;;;;;;;19.61;66.28;100533.78;1751402;79;21308;-81
2023/10/31 07:28:17;;;;;;;11.22;5.08;;;;;;;19.63;65.87;100530.80;1751688;80;21341;-81
2023/10/31 07:31:23;;;;;;;14.63;5.90;;;;;;;19.43;66.48;100530.95;1767314;79;21690;-81
2023/10/31 07:34:29;;;;;;;18.82;7.05;;;;;;;19.73;65.73;100524.16;1727728;80;21393;-81
2023/10/31 07:37:35;;;;;;;15.53;6.50;;;;;;;19.82;65.66;100526.94;1740961;80;21956;-80
2023/10/31 07:40:40;;;;;;;14.73;5.95;;;;;;;19.94;65.71;100539.48;1724877;80;21307;-82
2023/10/31 07:43:47;;;;;;;20.50;7.03;;;;;;;20.27;65.04;100534.05;1731847;80;21316;-82
2023/10/31 07:46:53;;;;;;;19.00;7.30;;;;;;;20.46;64.09;100528.74;1737797;81;21319;-81
2023/10/31 07:49:59;;;;;;;13.43;6.90;;;;;;;20.41;64.53;100532.77;1773105;79;21335;-82
2023/10/31 07:53:05;;;;;;;15.08;5.90;;;;;;;20.39;64.68;100530.78;1734446;80;21989;-81
2023/10/31 07:56:12;;;;;;;13.13;5.92;;;;;;;20.37;65.38;100525.98;1735557;81;21901;-82
2023/10/31 07:59:18;;;;;;;17.98;6.40;;;;;;;20.63;65.04;100525.64;1745568;80;21309;-81
2023/10/31 08:02:23;;;;;;;13.20;6.10;;;;;;;20.98;64.35;100522.63;1731056;80;21302;-81
2023/10/31 08:05:29;;;;;;;13.78;4.70;;;;;;;20.80;64.87;100516.63;1735652;80;21273;-83
2023/10/31 08:08:34;;;;;;;21.40;5.83;;;;;;;20.71;65.23;100516.67;1727504;81;21299;-82
2023/10/31 08:11:39;;;;;;;11.20;5.50;;;;;;;20.67;65.32;100518.53;1743100;81;22613;-81
2023/10/31 08:14:46;;;;;;;17.17;5.72;;;;;;;20.86;65.10;100515.13;1715084;81;21325;-82
2023/10/31 08:17:53;;;;;;;12.68;5.53;;;;;;;21.02;64.66;100506.61;1740526;80;21352;-81
2023/10/31 08:21:00;;;;;;;14.38;6.00;;;;;;;21.04;65.07;100506.39;1732181;80;21347;-81
2023/10/31 08:24:05;;;;;;;13.50;5.40;;;;;;;21.37;64.19;100501.11;1727958;81;21331;-81
2023/10/31 08:27:12;;;;;;;8.80;4.17;;;;;;;21.46;63.93;100501.58;1734243;80;21339;-81
2023/10/31 08:30:20;;;;;;;9.73;4.90;;;;;;;21.61;63.47;100502.47;1723422;80;21921;-80
2023/10/31 08:33:25;;;;;;;16.80;5.45;;;;;;;21.75;63.15;100497.48;1732776;79;21358;-81
2023/10/31 08:36:32;;;;;;;16.55;5.15;;;;;;;21.63;63.24;100496.95;1735983;81;21868;-81
2023/10/31 08:39:37;;;;;;;13.98;6.08;;;;;;;21.84;63.05;100494.63;1730596;80;21391;-82
2023/10/31 08:42:42;;;;;;;11.97;4.33;;;;;;;21.99;62.46;100499.66;1723778;81;21364;-81
2023/10/31 08:45:48;;;;;;;9.70;4.20;;;;;;;21.87;63.24;100494.11;1731884;80;21311;-81
2023/10/31 08:48:54;;;;;;;12.80;3.98;;;;;;;22.02;62.91;100494.45;1728647;80;21361;-81
2023/10/31 08:52:02;;;;;;;15.43;3.80;;;;;;;22.26;62.27;100480.45;1740556;80;21325;-82
2023/10/31 08:55:07;;;;;;;9.03;3.77;;;;;;;22.23;62.08;100486.52;1735981;80;21284;-82
2023/10/31 08:58:18;;;;;;;16.32;3.50;;;;;;;22.23;62.24;100481.79;1743241;80;21334;-81
2023/10/31 09:01:24;;;;;;;20.27;3.65;;;;;;;22.23;62.34;100473.98;1744671;80;21361;-81
2023/10/31 09:04:31;;;;;;;13.83;3.20;;;;;;;22.19;62.38;100473.63;1742544;80;21359;-81
2023/10/31 09:07:37;;;;;;;11.97;3.10;;;;;;;22.28;62.10;100468.50;1727047;80;21980;-81
2023/10/31 09:10:46;;;;;;;18.02;3.45;;;;;;;22.27;61.86;100461.25;1743878;80;21302;-81
2023/10/31 09:13:51;;;;;;;10.82;3.50;;;;;;;22.28;61.50;100459.59;1726729;80;21341;-81
2023/10/31 09:16:57;;;;;;;17.60;3.67;;;;;;;22.41;61.16;100454.27;1737672;80;21324;-81
2023/10/31 09:20:04;;;;;;;11.30;3.27;;;;;;;22.38;61.30;100449.19;1739665;80;22404;-81
2023/10/31 09:23:10;;;;;;;16.93;3.65;;;;;;;22.54;60.76;100453.95;1731711;80;21397;-81
2023/10/31 09:26:17;;;;;;;12.35;3.50;;;;;;;22.71;60.13;100453.39;1733330;80;21351;-81
2023/10/31 09:29:24;;;;;;;15.00;3.95;;;;;;;22.78;60.04;100444.04;1741029;80;21310;-80
2023/10/31 09:32:31;;;;;;;11.68;3.55;;;;;;;22.82;59.57;100443.28;1763231;79;21296;-81
2023/10/31 09:35:37;;;;;;;12.03;3.30;;;;;;;22.84;59.61;100439.67;1759283;79;21369;-81
2023/10/31 09:38:42;;;;;;;11.25;3.30;;;;;;;22.94;58.97;100434.28;1735530;80;21675;-81
2023/10/31 09:41:47;;;;;;;15.78;3.00;;;;;;;23.03;58.63;100433.30;1738536;79;21359;-81
2023/10/31 09:44:55;;;;;;;16.93;3.67;;;;;;;23.09;58.33;100439.25;1724595;81;21315;-81
2023/10/31 09:48:02;;;;;;;15.72;3.20;;;;;;;23.19;57.10;100432.97;1737112;80;21319;-81
2023/10/31 09:51:11;;;;;;;11.08;3.30;;;;;;;23.30;56.12;100433.44;1723365;80;22318;-81
2023/10/31 09:54:17;;;;;;;12.28;3.67;;;;;;;23.24;56.19;100428.02;1741437;80;21892;-81
2023/10/31 09:57:22;;;;;;;9.83;2.87;;;;;;;23.31;55.22;100435.67;1730957;81;21360;-81
2023/10/31 10:00:28;;;;;;;9.10;2.83;;;;;;;23.42;54.14;100433.30;1731356;81;21340;-82
2023/10/31 10:03:43;;;;;;;10.90;2.92;;;;;;;23.42;53.78;100438.89;1734341;80;21366;-82
2023/10/31 10:07:01;;;;;;;14.83;3.72;;;;;;;23.43;53.49;100434.98;1721694;80;21374;-82
2023/10/31 10:10:07;;;;;;;17.50;3.87;;;;;;;23.50;52.86;100430.63;1728284;81;21285;-82
2023/10/31 10:13:12;;;;;;;8.85;3.08;;;;;;;23.60;52.35;100420.42;1725982;81;21337;-82
2023/10/31 10:16:19;;;;;;;19.80;3.35;;;;;;;23.60;51.92;100424.61;1734929;81;21304;-82
2023/10/31 10:19:26;;;;;;;15.25;3.08;;;;;;;23.66;51.56;100420.81;1747915;81;21263;-82
2023/10/31 10:22:36;;;;;;;10.90;2.62;;;;;;;23.82;51.06;100414.03;1737447;80;22604;-82
2023/10/31 10:25:42;;;;;;;14.73;3.27;;;;;;;23.78;50.93;100410.07;1719199;80;22500;-83
2023/10/31 10:28:48;;;;;;;11.63;2.35;;;;;;;23.79;50.63;100409.80;1724941;80;22383;-81
2023/10/31 10:31:54;;;;;;;14.95;2.92;;;;;;;23.86;49.81;100407.66;1717290;81;22550;-81
2023/10/31 10:35:02;;;;;;;11.28;3.10;;;;;;;23.98;49.09;100405.55;1730142;81;21474;-81
2023/10/31 10:38:08;;;;;;;13.95;3.08;;;;;;;24.00;48.95;100413.69;1752073;80;21382;-81
2023/10/31 10:41:14;;;;;;;7.53;2.65;;;;;;;24.14;48.60;100407.97;1728492;81;21338;-81
2023/10/31 10:44:20;;;;;;;11.20;2.92;;;;;;;24.06;48.44;100404.80;1748710;79;21369;-81
2023/10/31 10:47:26;;;;;;;10.48;2.80;;;;;;;23.99;48.26;100406.39;1737726;80;21374;-82
2023/10/31 10:50:33;;;;;;;12.55;2.67;;;;;;;23.99;48.47;100406.39;1738144;80;21323;-82
2023/10/31 10:53:40;;;;;;;10.25;2.90;;;;;;;24.12;47.89;100404.58;1760845;80;21343;-83
2023/10/31 10:57:01;;;;;;;11.88;2.83;;;;;;;24.32;47.55;100409.52;1750268;81;21262;-81
2023/10/31 11:00:12;;;;;;;10.55;2.90;;;;;;;24.36;46.98;100407.05;1756395;79;21886;-81
2023/10/31 11:03:18;;;;;;;10.18;2.25;;;;;;;24.47;46.60;100403.28;1752881;80;21357;-81
2023/10/31 11:49:01;;;;;;;11.95;2.83;;;;;;;21.64;54.88;100337.23;1811131;77;28680;-80
2023/10/31 11:52:09;;;;;;;6.92;2.80;;;;;;;21.79;53.75;100337.22;1748058;79;21346;-79
2023/10/31 11:55:21;;;;;;;15.65;2.95;;;;;;;21.81;53.20;100333.08;1802614;77;21283;-79
2023/10/31 11:58:31;;;;;;;15.68;3.75;;;;;;;22.00;52.68;100330.07;1802970;78;21290;-79
2023/10/31 12:01:38;;;;;;;12.65;2.70;;;;;;;21.64;53.22;100321.92;1816571;78;21288;-78
2023/10/31 12:04:45;;;;;;;8.48;2.85;;;;;;;21.90;52.70;100324.61;1809158;78;21303;-78
2023/10/31 12:07:53;;;;;;;11.73;3.10;;;;;;;21.62;53.13;100318.52;1801342;78;21189;-80
2023/10/31 12:10:58;;;;;;;9.30;2.62;;;;;;;21.82;52.44;100316.66;1801709;78;21549;-79
2023/10/31 12:14:09;;;;;;;11.25;3.08;;;;;;;21.85;52.18;100320.90;1809525;78;21617;-79
2023/10/31 12:17:15;;;;;;;11.97;3.10;;;;;;;22.06;51.85;100310.40;1798891;78;21327;-78
2023/10/31 12:20:22;;;;;;;13.22;3.15;;;;;;;22.06;51.43;100309.01;1785942;78;21310;-79
2023/10/31 12:23:28;;;;;;;7.55;2.40;;;;;;;21.85;52.88;100311.99;1794257;78;22028;-80
2023/10/31 12:26:35;;;;;;;16.27;3.40;;;;;;;21.97;53.42;100307.73;1809454;77;21282;-80
2023/10/31 12:29:39;;;;;;;10.38;3.08;;;;;;;21.83;54.09;100304.97;1815958;77;21272;-80
2023/10/31 12:32:46;;;;;;;10.68;3.00;;;;;;;21.79;54.21;100301.03;1833557;77;21318;-80
2023/10/31 12:35:53;;;;;;;5.37;2.62;;;;;;;21.97;53.68;100306.89;1815547;77;21270;-80
2023/10/31 12:39:02;;;;;;;14.00;3.52;;;;;;;21.81;54.04;100298.27;1794126;77;21275;-80
2023/10/31 12:42:10;;;;;;;7.83;3.00;;;;;;;21.92;53.77;100304.34;1784893;79;21252;-79
2023/10/31 12:45:17;;;;;;;8.23;2.45;;;;;;;21.85;53.57;100302.80;1755035;80;21307;-80
2023/10/31 12:48:22;;;;;;;14.35;3.27;;;;;;;21.96;53.41;100304.66;1749054;80;21287;-80
2023/10/31 12:51:29;;;;;;;5.25;2.70;;;;;;;21.89;53.35;100302.59;1777151;79;21305;-80
2023/10/31 12:54:45;;;;;;;9.00;2.77;;;;;;;22.09;52.60;100302.95;1779486;79;21289;-80
2023/10/31 12:57:51;;;;;;;7.42;3.00;;;;;;;21.85;52.78;100301.41;1785706;79;21253;-79
2023/10/31 13:00:59;;;;;;;9.00;2.98;;;;;;;21.89;52.57;100291.46;1775275;79;21309;-79
2023/10/31 13:04:04;;;;;;;13.00;2.90;;;;;;;22.26;51.57;100286.28;1780259;79;21285;-80
2023/10/31 13:07:13;;;;;;;12.43;3.15;;;;;;;21.94;51.86;100284.59;1780714;79;21298;-79
2023/10/31 13:10:19;;;;;;;7.55;2.37;;;;;;;21.95;51.52;100280.15;1790429;79;21896;-80
2023/10/31 13:13:25;;;;;;;10.65;3.20;;;;;;;21.88;51.88;100281.42;1791753;79;21915;-81
2023/10/31 13:16:30;;;;;;;7.05;2.75;;;;;;;21.49;52.36;100286.81;1790576;79;21297;-80
2023/10/31 13:19:35;;;;;;;9.13;3.58;;;;;;;21.95;51.18;100280.70;1792493;79;21875;-80
2023/10/31 13:22:43;;;;;;;9.73;2.90;;;;;;;21.71;52.39;100286.95;1786871;79;21325;-80
2023/10/31 13:25:49;;;;;;;15.63;4.47;;;;;;;21.74;52.17;100277.25;1782398;79;21305;-79
2023/10/31 13:28:54;;;;;;;9.53;2.83;;;;;;;21.72;52.24;100276.66;1754114;81;21317;-80
2023/10/31 13:32:03;;;;;;;9.45;3.08;;;;;;;21.62;52.19;100268.97;1784628;79;21281;-79
2023/10/31 13:35:10;;;;;;;7.87;2.90;;;;;;;21.59;51.82;100268.91;1792364;79;21183;-79
2023/10/31 13:38:18;;;;;;;10.40;2.62;;;;;;;21.54;51.79;100266.03;1792985;79;21304;-78
2023/10/31 13:41:23;;;;;;;10.78;2.72;;;;;;;21.58;51.47;100261.66;1773733;81;21326;-79
2023/10/31 13:44:30;;;;;;;6.72;2.60;;;;;;;21.26;51.82;100258.51;1774051;81;21330;-80
2023/10/31 13:47:37;;;;;;;7.67;3.02;;;;;;;21.19;52.15;100259.21;1803109;79;21313;-80
2023/10/31 13:50:44;;;;;;;8.18;2.77;;;;;;;21.18;52.09;100259.77;1749973;81;21920;-80
2023/10/31 13:53:50;;;;;;;9.70;3.17;;;;;;;21.25;51.61;100259.60;1741927;81;21324;-80
2023/10/31 13:56:58;;;;;;;18.65;3.45;;;;;;;21.05;51.74;100264.22;1781682;80;21266;-80
2023/10/31 14:00:04;;;;;;;7.28;2.77;;;;;;;21.05;51.78;100261.44;1745092;82;21313;-79
2023/10/31 14:03:11;;;;;;;17.73;4.85;;;;;;;21.09;51.48;100261.80;1781296;80;21967;-79
2023/10/31 14:06:19;;;;;;;9.13;4.90;;;;;;;20.77;52.22;100253.05;1746877;82;21348;-80
2023/10/31 14:09:25;;;;;;;8.50;3.50;;;;;;;20.81;52.07;100249.53;1780188;80;21352;-79
2023/10/31 14:12:31;;;;;;;9.50;3.22;;;;;;;20.39;53.24;100258.01;1747584;82;21344;-79
2023/10/31 14:15:37;;;;;;;14.13;3.27;;;;;;;20.46;53.09;100255.09;1783336;80;21549;-80
2023/10/31 14:18:45;;;;;;;14.78;3.70;;;;;;;20.35;53.58;100255.41;1747277;82;21957;-79
2023/10/31 14:21:54;;;;;;;12.90;3.40;;;;;;;20.37;53.48;100249.60;1783324;80;21317;-79
2023/10/31 14:25:04;;;;;;;15.72;4.40;;;;;;;20.47;53.32;100255.45;1747895;82;21325;-79
2023/10/31 14:28:08;;;;;;;7.60;3.62;;;;;;;20.35;53.60;100253.17;1782863;80;21237;-80
2023/10/31 14:31:15;;;;;;;11.88;4.70;;;;;;;20.33;53.50;100252.59;1748313;82;21364;-79
2023/10/31 14:34:19;;;;;;;18.30;6.00;;;;;;;20.27;53.86;100256.31;1782498;80;21309;-79
2023/10/31 14:37:27;;;;;;;11.25;4.67;;;;;;;20.08;54.56;100260.58;1748397;82;21328;-80
2023/10/31 14:40:33;;;;;;;9.23;4.80;;;;;;;19.79;55.73;100253.19;1783554;80;21928;-79
2023/10/31 14:43:39;;;;;;;12.13;4.83;;;;;;;19.69;57.02;100254.31;1748850;82;21886;-79
2023/10/31 14:46:45;;;;;;;10.58;4.50;;;;;;;19.44;58.01;100251.68;1783967;80;21290;-78
2023/10/31 14:49:51;;;;;;;11.73;4.80;;;;;;;19.25;59.10;100248.95;1748078;81;21333;-79
2023/10/31 14:52:58;;;;;;;13.30;5.97;;;;;;;19.31;59.44;100252.70;1777824;80;21292;-79
2023/10/31 14:56:05;;;;;;;17.00;5.75;;;;;;;19.36;59.62;100255.62;1777749;80;21867;-79
2023/10/31 14:59:15;;;;;;;17.55;7.05;;;;;;;19.54;59.44;100248.63;1776946;80;21317;-79
2023/10/31 15:02:20;;;;;;;16.60;5.60;;;;;;;19.34;59.93;100250.32;1777814;80;21308;-79